Nesenie raksti

Ziņas

Par Gliding.lv

Gliding.lv ir interneta vietne par planieriem un planierismu. Šeit būs atrodama informācija par iespējām pamēģināt, iesaistīties un organizēt planierisma aktivitātes. Izmanto Gliding.lv forumu, ja Tev ir kāda tēma diskusijai vai jautājums. Gliding.lv merķis ir informēt un apvienot planierisma interesentus, nodrošinot un apmainoties ar aktuālāko un arī bijušo. Lidojam!

Laiks Rīgā
17°
clear sky
mitrums: 23%
vējš: 4m/s ADA
Aug 17 • Zem 15
12°
Otr
11°
Tre
9°
Cet
7°
Pie
Meteo-dati no OpenWeatherMap

METAR

EVRA 191050Z 11007KT 040V150 CAVOK 17/M04 Q1022 NOSIG

EVLA 191050Z AUTO 08009KT 030V130 9999 NCD 17/M02 Q1021

EVVA 191050Z AUTO 07012KT 040V100 CAVOK 17/M03 Q1023

Nesenie raksti

Pāriet uz rīkjoslu